createdAt,value
2023-01-23T00:01:42.254Z,14.93
2023-01-23T00:04:13.482Z,14.40
2023-01-23T00:06:41.855Z,13.57
2023-01-23T00:09:10.463Z,15.43
2023-01-23T00:11:38.799Z,14.67
2023-01-23T00:14:06.773Z,13.23
2023-01-23T00:16:36.419Z,13.03
2023-01-23T00:19:04.602Z,14.30
2023-01-23T00:21:32.842Z,14.87
2023-01-23T00:24:02.735Z,14.23
2023-01-23T00:26:33.484Z,13.57
2023-01-23T00:29:01.699Z,13.73
2023-01-23T00:31:32.969Z,14.33
2023-01-23T00:34:04.833Z,12.33
2023-01-23T00:36:35.199Z,11.80
2023-01-23T00:39:03.723Z,12.27
2023-01-23T00:41:32.494Z,12.77
2023-01-23T00:44:00.590Z,13.67
2023-01-23T00:46:28.612Z,12.60
2023-01-23T00:48:56.614Z,12.17
2023-01-23T00:51:26.621Z,13.83
2023-01-23T00:53:54.838Z,13.03
2023-01-23T00:56:22.890Z,14.27
2023-01-23T00:58:50.971Z,12.23
2023-01-23T01:01:19.485Z,12.97
2023-01-23T01:03:47.612Z,13.67
2023-01-23T01:06:16.435Z,13.07
2023-01-23T01:08:46.186Z,14.43
2023-01-23T01:11:14.244Z,12.40
2023-01-23T01:13:42.706Z,13.40
2023-01-23T01:16:11.847Z,14.33
2023-01-23T01:18:40.086Z,12.73
2023-01-23T01:21:09.112Z,12.63
2023-01-23T01:23:37.170Z,12.50
2023-01-23T01:26:07.298Z,14.17
2023-01-23T01:28:37.046Z,11.70
2023-01-23T01:31:08.271Z,11.33
2023-01-23T01:33:36.556Z,11.43
2023-01-23T01:36:05.213Z,11.10
2023-01-23T01:38:33.290Z,12.40
2023-01-23T01:41:01.409Z,12.53
2023-01-23T01:43:31.896Z,13.67
2023-01-23T01:46:19.133Z,12.83
2023-01-23T01:48:52.731Z,12.43
2023-01-23T01:51:26.625Z,11.67
2023-01-23T01:54:02.779Z,12.90
2023-01-23T01:56:33.168Z,12.73
2023-01-23T01:59:05.103Z,11.27
2023-01-23T02:01:33.354Z,10.87
2023-01-23T02:04:02.237Z,12.40
2023-01-23T02:06:31.008Z,12.03
2023-01-23T02:09:05.955Z,13.03
2023-01-23T02:11:35.153Z,12.03
2023-01-23T02:14:05.040Z,12.67
2023-01-23T02:16:41.065Z,12.40
2023-01-23T02:19:22.008Z,11.40
2023-01-23T02:22:00.262Z,13.57
2023-01-23T02:24:37.335Z,12.47
2023-01-23T02:27:08.353Z,14.37
2023-01-23T02:29:44.114Z,13.27
2023-01-23T02:32:15.258Z,12.87
2023-01-23T02:34:44.910Z,13.87
2023-01-23T02:37:14.687Z,10.97
2023-01-23T02:39:43.556Z,12.53
2023-01-23T02:42:14.000Z,13.03
2023-01-23T02:44:43.709Z,13.07
2023-01-23T02:47:13.330Z,13.47
2023-01-23T02:49:43.225Z,13.97
2023-01-23T02:52:12.174Z,13.90
2023-01-23T02:54:41.260Z,12.77
2023-01-23T02:57:09.813Z,13.03
2023-01-23T02:59:57.320Z,12.70
2023-01-23T03:02:27.206Z,13.07
2023-01-23T03:04:55.856Z,13.23
2023-01-23T03:07:24.487Z,12.23
2023-01-23T03:09:53.178Z,11.50
2023-01-23T03:12:21.825Z,14.13
2023-01-23T03:14:55.075Z,13.03
2023-01-23T03:17:25.656Z,13.13
2023-01-23T03:19:54.303Z,11.53
2023-01-23T03:22:23.577Z,12.33
2023-01-23T03:24:52.845Z,12.70
2023-01-23T03:27:22.018Z,13.87
2023-01-23T03:30:09.874Z,12.20
2023-01-23T03:32:40.331Z,13.97
2023-01-23T03:35:14.607Z,13.57
2023-01-23T03:37:43.479Z,12.13
2023-01-23T03:40:34.491Z,13.53
2023-01-23T03:43:03.180Z,12.27
2023-01-23T03:45:35.008Z,11.83
2023-01-23T03:48:03.513Z,12.90
2023-01-23T03:50:32.109Z,11.67
2023-01-23T03:53:01.339Z,12.83
2023-01-23T03:55:30.140Z,12.03
2023-01-23T03:57:58.503Z,12.37
2023-01-23T04:00:28.272Z,13.10
2023-01-23T04:02:58.762Z,11.03
2023-01-23T04:05:27.141Z,12.00
2023-01-23T04:07:56.154Z,10.90
2023-01-23T04:10:24.552Z,12.40
2023-01-23T04:12:53.151Z,11.20
2023-01-23T04:15:22.166Z,11.93
2023-01-23T04:17:50.409Z,11.87
2023-01-23T04:20:22.679Z,12.37
2023-01-23T04:22:52.453Z,11.87
2023-01-23T04:25:21.066Z,11.33
2023-01-23T04:27:49.564Z,11.77
2023-01-23T04:30:18.559Z,12.23
2023-01-23T04:32:47.313Z,12.60
2023-01-23T04:35:15.890Z,13.07
2023-01-23T04:37:47.960Z,14.20
2023-01-23T04:40:17.367Z,11.27
2023-01-23T04:42:46.164Z,13.57
2023-01-23T04:45:15.751Z,11.00
2023-01-23T04:47:45.118Z,12.60
2023-01-23T04:50:14.509Z,12.73
2023-01-23T04:52:42.791Z,12.23
2023-01-23T04:55:13.244Z,11.90
2023-01-23T04:57:41.852Z,11.57
2023-01-23T05:00:11.401Z,13.13
2023-01-23T05:02:40.241Z,12.50
2023-01-23T05:05:09.525Z,12.57
2023-01-23T05:07:37.862Z,11.37
2023-01-23T05:10:07.103Z,11.70
2023-01-23T05:12:37.024Z,12.13
2023-01-23T05:15:05.740Z,12.80
2023-01-23T05:17:34.878Z,12.33
2023-01-23T05:20:03.745Z,11.87
2023-01-23T05:22:35.774Z,11.23
2023-01-23T05:25:04.240Z,13.53
2023-01-23T05:27:33.101Z,11.10
2023-01-23T05:30:08.995Z,11.70
2023-01-23T05:32:38.618Z,12.23
2023-01-23T05:35:08.308Z,11.67
2023-01-23T05:40:37.025Z,11.27
2023-01-23T05:43:12.153Z,12.10
2023-01-23T05:45:55.114Z,11.90
2023-01-23T05:48:36.494Z,12.77
2023-01-23T05:51:07.591Z,11.20
2023-01-23T05:53:54.832Z,12.40
2023-01-23T06:05:36.346Z,12.27
2023-01-23T06:08:06.392Z,12.80
2023-01-23T06:10:40.666Z,12.67
2023-01-23T06:13:08.654Z,14.73
2023-01-23T06:15:37.389Z,13.70
2023-01-23T06:18:05.454Z,14.20
2023-01-23T06:20:35.727Z,12.57
2023-01-23T06:23:04.546Z,13.90
2023-01-23T06:25:33.283Z,12.07
2023-01-23T06:28:02.765Z,15.13
2023-01-23T06:30:31.487Z,13.50
2023-01-23T06:33:02.230Z,14.13
2023-01-23T06:35:31.600Z,13.70
2023-01-23T06:38:08.844Z,15.30
2023-01-23T06:40:37.717Z,16.03
2023-01-23T06:43:08.636Z,16.57
2023-01-23T06:45:37.908Z,16.90
2023-01-23T06:48:06.834Z,18.00
2023-01-23T06:50:35.996Z,16.90
2023-01-23T06:56:05.486Z,18.30
2023-01-23T06:58:36.020Z,16.93
2023-01-23T07:01:14.544Z,17.73
2023-01-23T07:03:45.982Z,16.50
2023-01-23T07:06:18.507Z,17.03
2023-01-23T07:08:56.564Z,16.50
2023-01-23T07:11:28.244Z,18.93
2023-01-23T07:13:58.482Z,18.67
2023-01-23T07:16:28.455Z,17.27
2023-01-23T07:19:00.024Z,20.40
2023-01-23T07:21:35.740Z,19.03
2023-01-23T07:24:07.597Z,19.97
2023-01-23T07:26:37.833Z,21.17
2023-01-23T07:29:09.187Z,21.37
2023-01-23T07:31:41.018Z,20.53
2023-01-23T07:34:09.195Z,20.87
2023-01-23T07:36:37.314Z,21.27
2023-01-23T07:39:11.679Z,19.53
2023-01-23T07:41:43.058Z,18.37
2023-01-23T07:44:23.521Z,20.33
2023-01-23T07:46:54.877Z,19.93
2023-01-23T07:49:38.210Z,19.30
2023-01-23T07:52:25.597Z,21.90
2023-01-23T07:55:34.864Z,18.07
2023-01-23T07:58:21.594Z,17.00
2023-01-23T08:03:41.366Z,16.73
2023-01-23T08:06:10.618Z,18.10
2023-01-23T08:08:41.437Z,15.47
2023-01-23T08:11:13.058Z,15.77
2023-01-23T08:13:50.663Z,16.40
2023-01-23T08:16:21.768Z,15.80
2023-01-23T08:18:50.932Z,15.60
2023-01-23T08:21:20.925Z,14.73
2023-01-23T08:23:49.798Z,14.13
2023-01-23T08:26:19.128Z,15.93
2023-01-23T08:29:03.980Z,14.40
2023-01-23T08:31:33.442Z,14.33
2023-01-23T08:34:04.504Z,14.03
2023-01-23T08:36:35.886Z,14.00
2023-01-23T08:39:07.965Z,14.07
2023-01-23T08:41:36.327Z,13.53
2023-01-23T08:44:06.323Z,13.57
2023-01-23T08:46:34.624Z,13.83
2023-01-23T08:54:21.245Z,12.43
2023-01-23T08:56:49.319Z,13.37
2023-01-23T08:59:20.373Z,14.90
2023-01-23T09:01:49.688Z,13.97
2023-01-23T09:04:18.828Z,12.53
2023-01-23T09:06:47.704Z,14.77
2023-01-23T09:09:18.505Z,13.93
2023-01-23T09:11:47.453Z,13.80
2023-01-23T09:14:20.003Z,13.50
2023-01-23T09:20:17.791Z,13.47
2023-01-23T09:31:20.584Z,12.73
2023-01-23T09:33:52.901Z,13.13
2023-01-23T09:36:37.576Z,13.83
2023-01-23T09:39:10.710Z,13.23
2023-01-23T09:44:42.972Z,12.73
2023-01-23T09:47:32.121Z,11.50
2023-01-23T09:50:23.476Z,11.93
2023-01-23T09:52:59.942Z,12.83
2023-01-23T09:55:46.519Z,12.07
2023-01-23T09:58:21.345Z,12.53
2023-01-23T10:00:55.526Z,12.87
2023-01-23T10:03:38.926Z,11.90
2023-01-23T10:06:35.832Z,12.23
2023-01-23T10:09:42.534Z,12.53
2023-01-23T10:12:27.597Z,13.20
2023-01-23T10:15:27.254Z,12.90
2023-01-23T10:18:14.513Z,11.77
2023-01-23T10:28:02.957Z,12.43
2023-01-23T10:30:36.939Z,12.30
2023-01-23T10:33:16.465Z,12.13
2023-01-23T10:36:05.148Z,12.93
2023-01-23T11:16:49.856Z,11.57
2023-01-23T11:19:38.564Z,13.07
2023-01-23T11:25:30.583Z,11.80
2023-01-23T11:54:17.769Z,14.00
2023-01-23T11:57:02.712Z,13.30
2023-01-23T12:00:12.422Z,13.03
2023-01-23T12:06:55.121Z,14.07
2023-01-23T12:09:34.010Z,12.67
2023-01-23T12:35:24.020Z,12.67
2023-01-23T12:38:15.702Z,11.93
2023-01-23T12:41:03.324Z,12.37
2023-01-23T12:46:40.279Z,13.50
2023-01-23T12:49:23.507Z,12.70
2023-01-23T12:52:00.863Z,11.53
2023-01-23T12:54:42.756Z,11.07
2023-01-23T13:00:16.914Z,12.27
2023-01-23T13:02:56.699Z,12.40
2023-01-23T13:05:33.900Z,11.17
2023-01-23T13:16:54.736Z,13.33
2023-01-23T13:19:45.692Z,12.17
2023-01-23T13:22:29.307Z,11.67
2023-01-23T13:25:26.653Z,10.80
2023-01-23T13:27:56.227Z,10.90
2023-01-23T13:30:46.233Z,11.60
2023-01-23T13:34:15.098Z,11.30
2023-01-23T13:43:57.407Z,10.67
2023-01-23T14:37:20.113Z,11.27
2023-01-23T16:55:40.243Z,13.93
2023-01-23T17:24:48.231Z,14.83
2023-01-23T17:34:59.361Z,13.73
2023-01-23T17:38:19.535Z,12.83
2023-01-23T17:48:07.583Z,12.87
2023-01-23T18:09:35.147Z,14.17
2023-01-23T19:11:05.356Z,17.03
2023-01-23T19:20:12.929Z,17.70
2023-01-23T19:22:53.724Z,16.17
2023-01-23T19:25:25.624Z,18.00
2023-01-23T19:28:00.229Z,17.57
2023-01-23T19:30:45.396Z,18.33
2023-01-23T19:39:06.012Z,20.13
2023-01-23T19:41:44.529Z,18.97
2023-01-23T19:44:16.127Z,16.73
2023-01-23T19:46:48.835Z,17.70
2023-01-23T19:52:15.780Z,19.07
2023-01-23T19:54:46.260Z,17.67
2023-01-23T19:57:15.270Z,18.57
2023-01-23T19:59:45.055Z,19.77
2023-01-23T20:02:19.615Z,18.57
2023-01-23T20:04:48.535Z,18.23
2023-01-23T20:07:18.040Z,17.27
2023-01-23T20:09:50.272Z,18.57
2023-01-23T20:12:19.533Z,19.07
2023-01-23T20:15:03.906Z,19.17
2023-01-23T20:17:34.589Z,17.43
2023-01-23T20:20:11.323Z,18.47
2023-01-23T20:22:42.145Z,18.07
2023-01-23T20:25:15.732Z,17.17
2023-01-23T20:27:59.101Z,17.23
2023-01-23T20:30:41.192Z,18.20
2023-01-23T20:33:11.813Z,18.37
2023-01-23T20:35:42.483Z,18.20
2023-01-23T20:41:32.380Z,18.00
2023-01-23T20:44:38.429Z,17.47
2023-01-23T20:47:23.132Z,14.17
2023-01-23T20:50:02.011Z,17.27
2023-01-23T20:55:45.604Z,17.67
2023-01-23T20:58:33.780Z,17.43
2023-01-23T21:02:06.399Z,17.00
2023-01-23T21:04:54.183Z,17.23
2023-01-23T21:07:27.630Z,16.93
2023-01-23T21:10:00.118Z,17.43
2023-01-23T21:15:38.008Z,16.13
2023-01-23T21:18:14.536Z,17.83
2023-01-23T21:26:40.774Z,18.40
2023-01-23T21:29:12.029Z,17.93
2023-01-23T21:31:44.008Z,19.07
2023-01-23T21:37:17.139Z,16.07
2023-01-23T21:39:55.411Z,17.87
2023-01-23T21:42:43.203Z,18.93
2023-01-23T21:45:13.706Z,18.17
2023-01-23T21:47:47.895Z,18.33
2023-01-23T21:53:27.169Z,17.40
2023-01-23T22:10:34.585Z,17.97
2023-01-23T22:13:23.446Z,17.77
2023-01-23T22:16:08.637Z,19.53
2023-01-23T22:21:41.885Z,18.50
2023-01-23T22:24:36.502Z,19.27
2023-01-23T22:27:18.902Z,17.40
2023-01-23T22:36:33.467Z,15.97
2023-01-23T22:39:02.269Z,17.60
2023-01-23T22:41:33.347Z,16.47
2023-01-23T22:44:11.442Z,17.27
2023-01-23T22:46:45.289Z,19.13
2023-01-23T22:52:02.693Z,17.60
2023-01-23T22:54:34.396Z,18.43
2023-01-23T22:57:04.106Z,17.13
2023-01-23T22:59:32.641Z,19.07
2023-01-23T23:02:01.902Z,17.80
2023-01-23T23:04:33.341Z,17.70
2023-01-23T23:07:03.531Z,17.97
2023-01-23T23:09:34.297Z,18.47
2023-01-23T23:12:03.067Z,18.77
2023-01-23T23:14:35.194Z,18.90
2023-01-23T23:17:06.048Z,18.00
2023-01-23T23:19:37.522Z,20.63
2023-01-23T23:25:18.108Z,17.37
2023-01-23T23:27:58.288Z,17.30
2023-01-23T23:30:26.774Z,19.13
2023-01-23T23:32:55.613Z,18.43
2023-01-23T23:35:28.900Z,18.37
2023-01-23T23:37:57.938Z,17.87
2023-01-23T23:40:27.394Z,17.93
2023-01-23T23:42:57.120Z,18.80
2023-01-23T23:45:27.290Z,18.33
2023-01-23T23:47:56.728Z,20.70
2023-01-23T23:50:30.640Z,19.77
2023-01-23T23:52:59.782Z,18.97
2023-01-23T23:55:29.184Z,19.07
2023-01-23T23:58:00.336Z,18.40
